Time;durP1;ratioP1;P1;durP2;ratioP2;P2;SDS_P1;SDS_P2;PMS_P1;PMS_P2;Temp;Humidity;BMP_temperature;BMP_pressure;BME280_temperature;BME280_humidity;BME280_pressure;Samples;Min_cycle;Max_cycle;Signal;HPM_P1;HPM_P2
2023/01/27 00:00:57;;;;;;;13.57;3.35;;;;;;;3.41;100.00;102447.53;4938641;29;20046;-88
2023/01/27 00:03:22;;;;;;;16.38;3.30;;;;;;;3.28;100.00;102434.88;4938316;29;20024;-88
2023/01/27 00:05:48;;;;;;;12.38;4.03;;;;;;;3.55;100.00;102485.75;4938004;29;20120;-89
2023/01/27 00:08:14;;;;;;;14.43;3.20;;;;;;;3.53;100.00;102486.59;4938212;29;20032;-88
2023/01/27 00:10:40;;;;;;;20.85;4.30;;;;;;;3.38;100.00;102454.38;4938082;29;20382;-89
2023/01/27 00:15:49;;;;;;;17.25;3.70;;;;;;;3.42;100.00;102476.47;4938431;29;20070;-88
2023/01/27 00:18:15;;;;;;;16.05;3.60;;;;;;;3.42;100.00;102479.88;4938033;29;20492;-88
2023/01/27 00:26:12;;;;;;;16.08;3.97;;;;;;;3.35;100.00;102485.06;4938033;29;20099;-89
2023/01/27 00:28:39;;;;;;;14.98;3.85;;;;;;;3.27;100.00;102477.44;4937711;29;20106;-86
2023/01/27 00:33:52;;;;;;;11.50;3.72;;;;;;;3.27;100.00;102474.88;4938002;29;20122;-86
2023/01/27 00:36:18;;;;;;;11.27;3.83;;;;;;;3.17;100.00;102469.00;4937752;29;20031;-88
2023/01/27 00:38:43;;;;;;;13.77;3.85;;;;;;;3.22;100.00;102486.81;4936459;29;20031;-90
2023/01/27 00:41:14;;;;;;;15.82;4.15;;;;;;;3.13;100.00;102466.44;4937597;29;20052;-89
2023/01/27 00:43:40;;;;;;;11.63;3.85;;;;;;;3.12;100.00;102467.31;4937966;29;20028;-88
2023/01/27 00:46:06;;;;;;;12.55;3.60;;;;;;;3.20;100.00;102478.31;4937551;29;20024;-87
2023/01/27 00:48:32;;;;;;;15.02;4.10;;;;;;;2.56;100.00;102390.22;4937655;29;20028;-88
2023/01/27 00:50:57;;;;;;;15.43;4.53;;;;;;;3.12;100.00;102491.13;4937710;29;20369;-88
2023/01/27 00:53:22;;;;;;;17.73;3.97;;;;;;;3.12;100.00;102492.81;4937097;29;20464;-89
2023/01/27 00:58:27;;;;;;;21.52;4.38;;;;;;;3.11;100.00;102493.69;5167725;23;20060;-89
2023/01/27 01:00:54;;;;;;;12.40;4.72;;;;;;;3.09;100.00;102497.97;4937420;29;20027;-90
2023/01/27 01:03:20;;;;;;;12.57;4.22;;;;;;;3.09;100.00;102493.69;4937465;29;20038;-89
2023/01/27 01:05:45;;;;;;;13.05;4.30;;;;;;;3.01;100.00;102475.03;4936122;29;20426;-89
2023/01/27 01:08:11;;;;;;;10.70;4.13;;;;;;;2.66;100.00;102421.63;4936997;29;20034;-86
2023/01/27 01:10:38;;;;;;;16.85;4.30;;;;;;;2.85;100.00;102458.09;4937222;29;20392;-90
2023/01/27 01:13:06;;;;;;;16.10;5.45;;;;;;;2.71;100.00;102442.00;4937219;29;20031;-85
2023/01/27 01:15:35;;;;;;;10.55;4.28;;;;;;;3.01;100.00;102490.34;4935602;29;20046;-86
2023/01/27 01:18:02;;;;;;;15.07;4.82;;;;;;;3.03;100.00;102496.28;4937453;29;20035;-85
2023/01/27 01:20:27;;;;;;;16.50;5.07;;;;;;;3.02;100.00;102497.13;4937110;29;20079;-86
2023/01/27 01:22:53;;;;;;;18.13;4.88;;;;;;;2.96;100.00;102493.78;4936805;29;20035;-85
2023/01/27 01:25:18;;;;;;;15.52;4.90;;;;;;;2.82;100.00;102475.97;4937808;29;20097;-86
2023/01/27 01:27:44;;;;;;;13.82;4.65;;;;;;;2.99;100.00;102509.91;4937157;29;20079;-85
2023/01/27 01:30:10;;;;;;;13.02;4.50;;;;;;;3.00;100.00;102510.75;4937285;29;20114;-86
2023/01/27 01:32:36;;;;;;;14.25;4.68;;;;;;;3.01;100.00;102509.91;4936824;29;20486;-87
2023/01/27 01:35:01;;;;;;;13.43;4.50;;;;;;;2.96;100.00;102507.38;4935544;29;20036;-86
2023/01/27 01:37:26;;;;;;;15.30;4.63;;;;;;;2.80;100.00;102475.97;4936809;29;20032;-86
2023/01/27 01:39:52;;;;;;;17.13;5.18;;;;;;;2.97;100.00;102506.53;4936635;29;20027;-86
2023/01/27 01:42:17;;;;;;;13.85;4.65;;;;;;;2.77;100.00;102482.81;4936524;29;20054;-85
2023/01/27 01:44:44;;;;;;;13.75;4.57;;;;;;;2.90;100.00;102506.56;4936768;29;20023;-84
2023/01/27 01:47:15;;;;;;;14.85;5.47;;;;;;;2.66;100.00;102470.09;4936692;29;20031;-86
2023/01/27 01:49:41;;;;;;;12.43;4.57;;;;;;;2.58;100.00;102453.97;4936339;29;20439;-86
2023/01/27 01:52:12;;;;;;;15.60;6.00;;;;;;;2.96;100.00;102517.59;4936610;29;20031;-85
2023/01/27 01:54:43;;;;;;;11.57;5.30;;;;;;;2.81;100.00;102487.88;4936278;29;20027;-86
2023/01/27 01:57:20;;;;;;;15.55;5.47;;;;;;;2.74;100.00;102483.63;4936485;29;20043;-84
2023/01/27 02:00:05;;;;;;;14.25;5.05;;;;;;;2.75;100.00;102492.13;4936600;29;20028;-85
2023/01/27 02:02:32;;;;;;;11.50;5.22;;;;;;;2.73;100.00;102484.50;4919365;29;20114;-85
2023/01/27 02:05:09;;;;;;;12.65;4.82;;;;;;;2.95;100.00;102507.38;4934688;29;20092;-86
2023/01/27 02:07:46;;;;;;;15.48;6.25;;;;;;;2.92;100.00;102515.03;4936318;29;20119;-84
2023/01/27 02:10:12;;;;;;;12.57;5.63;;;;;;;2.74;100.00;102496.41;4936187;29;20170;-84
2023/01/27 02:12:37;;;;;;;12.93;5.32;;;;;;;2.87;100.00;102509.97;4936089;29;20051;-84
2023/01/27 02:15:05;;;;;;;15.05;5.90;;;;;;;2.87;100.00;102512.53;4936302;29;20051;-85
2023/01/27 02:17:30;;;;;;;14.50;5.18;;;;;;;2.82;100.00;102504.03;4936012;29;20103;-85
2023/01/27 02:20:15;;;;;;;12.20;5.28;;;;;;;2.87;100.00;102517.63;4935955;29;20155;-86
2023/01/27 02:22:59;;;;;;;14.10;4.95;;;;;;;2.88;100.00;102524.44;4936029;29;20111;-89
2023/01/27 02:25:34;;;;;;;12.80;4.50;;;;;;;2.87;100.00;102522.72;4935724;29;20031;-90
2023/01/27 02:28:00;;;;;;;10.85;4.70;;;;;;;2.88;100.00;102529.53;4936044;29;20057;-89
2023/01/27 02:30:26;;;;;;;13.50;6.00;;;;;;;2.51;100.00;102467.59;4935661;29;20040;-89
2023/01/27 02:32:51;;;;;;;14.48;5.97;;;;;;;2.73;100.00;102519.38;4935915;29;20030;-88
2023/01/27 02:35:23;;;;;;;15.60;5.13;;;;;;;2.71;100.00;102504.06;4935856;29;20031;-88
2023/01/27 02:37:50;;;;;;;;;;;;;;;2.91;100.00;102538.88;4936372;29;20079;-88
2023/01/27 02:40:16;;;;;;;14.82;5.95;;;;;;;2.85;100.00;102540.59;4935561;29;19949;-89
2023/01/27 02:42:41;;;;;;;16.13;6.22;;;;;;;2.82;100.00;102538.03;4935812;29;20083;-88
2023/01/27 02:45:07;;;;;;;14.73;6.47;;;;;;;2.60;100.00;102510.91;4935372;29;20510;-89
2023/01/27 02:47:32;;;;;;;15.93;7.13;;;;;;;2.54;100.00;102510.91;4935700;29;20074;-89
2023/01/27 02:49:58;;;;;;;17.90;6.95;;;;;;;2.48;100.00;102496.50;4935612;29;20065;-88
2023/01/27 02:52:23;;;;;;;18.13;7.20;;;;;;;2.64;100.00;102534.69;4935723;29;20061;-89
2023/01/27 02:54:48;;;;;;;18.00;8.00;;;;;;;2.39;100.00;102486.31;4935369;29;20047;-89
2023/01/27 02:57:14;;;;;;;19.05;8.23;;;;;;;2.56;100.00;102519.44;4934198;29;20046;-88
2023/01/27 02:59:39;;;;;;;18.73;7.30;;;;;;;2.41;100.00;102499.06;4935544;29;20027;-89
2023/01/27 03:02:05;;;;;;;16.70;7.57;;;;;;;1.98;100.00;102431.19;4934874;29;20042;-88
2023/01/27 03:04:31;;;;;;;17.75;7.85;;;;;;;2.67;100.00;102539.81;4935480;29;20027;-88
2023/01/27 03:06:56;;;;;;;15.15;7.53;;;;;;;2.43;100.00;102510.09;4935505;29;20035;-88
2023/01/27 03:09:22;;;;;;;18.27;7.25;;;;;;;2.37;100.00;102493.13;4935423;29;20060;-88
2023/01/27 03:19:59;;;;;;;16.98;8.45;;;;;;;2.52;100.00;102538.13;4954652;29;20077;-89
2023/01/27 03:22:25;;;;;;;15.43;8.50;;;;;;;2.59;100.00;102550.88;4954680;29;20059;-89
2023/01/27 03:24:51;;;;;;;17.85;8.70;;;;;;;2.58;100.00;102541.53;4954281;29;20074;-89
2023/01/27 03:27:16;;;;;;;20.33;8.60;;;;;;;2.40;100.00;102526.25;4954026;28;20031;-89
2023/01/27 03:29:53;;;;;;;21.98;9.10;;;;;;;2.59;100.00;102547.47;4954599;28;20023;-87
2023/01/27 03:32:19;;;;;;;22.02;8.90;;;;;;;2.60;100.00;102546.63;4954582;28;20028;-88
2023/01/27 03:34:44;;;;;;;20.42;9.75;;;;;;;2.62;100.00;102554.25;4954466;28;20038;-90
2023/01/27 03:48:05;;;;;;;18.88;8.57;;;;;;;2.58;100.00;102566.19;4954185;29;20435;-88
2023/01/27 03:50:36;;;;;;;17.52;9.63;;;;;;;2.57;100.00;102564.47;4953168;29;20035;-87
2023/01/27 03:53:02;;;;;;;19.73;10.20;;;;;;;2.37;100.00;102536.47;4954509;28;20102;-87
2023/01/27 03:55:32;;;;;;;21.05;10.00;;;;;;;2.60;100.00;102569.56;4953968;28;20070;-88
2023/01/27 03:58:13;;;;;;;20.63;9.20;;;;;;;2.57;100.00;102572.13;4954086;28;20459;-88
2023/01/27 04:00:39;;;;;;;19.13;9.45;;;;;;;2.47;100.00;102565.34;4953982;28;20550;-86
2023/01/27 04:08:32;;;;;;;20.13;9.90;;;;;;;2.52;100.00;102581.47;4954238;29;20118;-87
2023/01/27 04:13:48;;;;;;;19.05;9.93;;;;;;;2.30;100.00;102532.22;4954585;28;20054;-88
2023/01/27 04:16:14;;;;;;;21.08;11.35;;;;;;;2.46;100.00;102555.97;4957541;28;20031;-85
2023/01/27 04:18:39;;;;;;;21.60;9.55;;;;;;;2.55;100.00;102572.13;4957619;28;20475;-87
2023/01/27 04:21:04;;;;;;;23.25;10.88;;;;;;;2.41;100.00;102548.34;4956070;29;20035;-85
2023/01/27 04:23:30;;;;;;;27.30;11.75;;;;;;;2.61;100.00;102575.53;4940051;29;20071;-86
2023/01/27 04:25:55;;;;;;;22.75;11.45;;;;;;;2.28;100.00;102516.09;4956893;29;20034;-87
2023/01/27 04:28:21;;;;;;;24.95;11.02;;;;;;;2.57;100.00;102565.34;4957206;28;20041;-86
2023/01/27 04:30:47;;;;;;;24.05;10.85;;;;;;;2.58;100.00;102569.56;4957360;28;20526;-85
2023/01/27 04:33:14;;;;;;;22.90;10.93;;;;;;;2.37;100.00;102539.03;4957252;28;20027;-87
2023/01/27 04:35:43;;;;;;;21.67;10.52;;;;;;;2.62;100.00;102574.66;4957268;28;20023;-87
2023/01/27 04:38:09;;;;;;;22.45;10.63;;;;;;;2.27;100.00;102525.44;4956917;28;20106;-87
2023/01/27 04:40:34;;;;;;;22.17;10.82;;;;;;;2.59;100.00;102578.06;4956165;29;20103;-85
2023/01/27 04:42:59;;;;;;;23.80;11.05;;;;;;;2.28;100.00;102526.28;4956888;28;20027;-86
2023/01/27 04:45:25;;;;;;;27.13;11.05;;;;;;;2.61;100.00;102580.63;4955920;29;20031;-86
2023/01/27 04:47:50;;;;;;;25.70;11.35;;;;;;;2.61;100.00;102583.16;4956905;28;20062;-85
2023/01/27 04:50:16;;;;;;;26.45;12.35;;;;;;;2.59;100.00;102590.81;4955517;29;20079;-85
2023/01/27 04:52:41;;;;;;;24.98;12.05;;;;;;;2.47;100.00;102581.50;4956588;28;20041;-84
2023/01/27 04:55:07;;;;;;;25.25;12.07;;;;;;;2.27;100.00;102550.94;4939556;29;20118;-86
2023/01/27 04:57:32;;;;;;;21.48;12.18;;;;;;;2.38;100.00;102578.09;4956341;28;20139;-87
2023/01/27 04:59:58;;;;;;;27.73;13.13;;;;;;;2.53;100.00;102599.31;4955449;29;20046;-85
2023/01/27 05:02:25;;;;;;;27.38;13.38;;;;;;;2.49;100.00;102600.19;4956699;29;20027;-85
2023/01/27 05:04:50;;;;;;;24.35;12.88;;;;;;;2.38;100.00;102583.22;4956664;28;20031;-85
2023/01/27 05:07:15;;;;;;;23.65;12.50;;;;;;;2.45;100.00;102600.19;4956277;29;20037;-85
2023/01/27 05:09:41;;;;;;;26.05;13.38;;;;;;;2.46;100.00;102595.09;4956568;28;20035;-85
2023/01/27 05:12:06;;;;;;;27.75;13.13;;;;;;;2.20;100.00;102543.28;4956194;29;20027;-87
2023/01/27 05:14:32;;;;;;;23.20;13.10;;;;;;;2.40;100.00;102581.50;4956644;28;20447;-85
2023/01/27 05:16:57;;;;;;;26.80;12.73;;;;;;;2.54;100.00;102615.47;4955052;29;20051;-86
2023/01/27 05:19:22;;;;;;;24.13;12.68;;;;;;;2.54;100.00;102601.03;4956751;28;20055;-87
2023/01/27 05:21:48;;;;;;;22.27;12.23;;;;;;;2.55;100.00;102607.81;4956425;28;20110;-86
2023/01/27 05:24:13;;;;;;;25.00;12.77;;;;;;;2.33;100.00;102565.34;4956296;28;20114;-85
2023/01/27 05:26:39;;;;;;;22.17;11.93;;;;;;;2.58;100.00;102604.44;4955544;29;20057;-86
2023/01/27 05:29:05;;;;;;;22.13;11.85;;;;;;;2.58;100.00;102610.38;4956003;28;20102;-85
2023/01/27 05:31:30;;;;;;;22.60;13.23;;;;;;;2.60;100.00;102618.03;4956043;28;20420;-83
2023/01/27 05:33:58;;;;;;;23.65;12.65;;;;;;;2.62;100.00;102618.03;4956088;28;20027;-86
2023/01/27 05:36:24;;;;;;;22.35;11.38;;;;;;;2.06;100.00;102529.69;4956061;28;20031;-87
2023/01/27 05:38:50;;;;;;;20.48;12.75;;;;;;;2.64;100.00;102621.41;4956111;28;20020;-85
2023/01/27 05:41:17;;;;;;;20.25;11.98;;;;;;;2.65;100.00;102623.94;4955727;28;20063;-87
2023/01/27 05:43:44;;;;;;;20.60;12.10;;;;;;;2.66;100.00;102633.34;4955441;28;20027;-86
2023/01/27 05:46:12;;;;;;;22.05;11.77;;;;;;;2.68;100.00;102625.69;4956074;28;20085;-85
2023/01/27 05:48:40;;;;;;;19.10;11.40;;;;;;;2.69;100.00;102623.13;4955483;28;20472;-86
2023/01/27 05:51:06;;;;;;;21.40;11.77;;;;;;;2.61;100.00;102618.88;4955908;28;20122;-87
2023/01/27 05:53:36;;;;;;;20.02;11.07;;;;;;;2.57;100.00;102606.13;4955681;28;20399;-87
2023/01/27 05:56:02;;;;;;;19.73;10.95;;;;;;;2.71;100.00;102630.75;4955791;28;20073;-86
2023/01/27 05:58:27;;;;;;;18.33;10.20;;;;;;;2.54;100.00;102607.81;4955043;28;20047;-86
2023/01/27 06:00:53;;;;;;;18.67;10.70;;;;;;;2.72;100.00;102627.34;4955773;28;20656;-88
2023/01/27 06:03:19;;;;;;;18.83;10.05;;;;;;;2.68;100.00;102629.06;4955374;28;20030;-89
2023/01/27 06:05:53;;;;;;;19.48;11.05;;;;;;;2.73;100.00;102645.22;4955536;28;20376;-89
2023/01/27 06:08:18;;;;;;;18.17;9.77;;;;;;;2.67;100.00;102629.94;4955383;28;20058;-90
2023/01/27 06:10:44;;;;;;;18.73;10.90;;;;;;;2.51;100.00;102607.84;4955355;28;20023;-89
2023/01/27 06:13:09;;;;;;;18.83;10.50;;;;;;;2.59;100.00;102608.69;4955250;28;20023;-90
2023/01/27 06:15:34;;;;;;;16.65;10.32;;;;;;;2.54;100.00;102603.56;4955403;29;20031;-89
2023/01/27 06:18:00;;;;;;;16.80;9.35;;;;;;;2.68;100.00;102625.69;4955400;29;20467;-88
2023/01/27 06:20:25;;;;;;;17.65;10.10;;;;;;;2.62;100.00;102626.50;4955297;28;20038;-88
2023/01/27 06:22:50;;;;;;;17.83;9.50;;;;;;;2.77;100.00;102646.06;4955260;29;20027;-91
2023/01/27 06:25:16;;;;;;;15.90;9.27;;;;;;;2.66;100.00;102633.34;4955090;28;20046;-91
2023/01/27 06:27:41;;;;;;;16.90;9.50;;;;;;;2.72;100.00;102645.22;4954898;28;20034;-90
2023/01/27 06:30:07;;;;;;;16.10;9.00;;;;;;;2.72;100.00;102646.06;4954831;28;20062;-83
2023/01/27 06:32:35;;;;;;;20.25;10.02;;;;;;;2.62;100.00;102625.66;4955099;28;20031;-89
2023/01/27 06:35:00;;;;;;;18.38;10.02;;;;;;;2.80;100.00;102662.22;4955117;28;20123;-89
2023/01/27 06:37:28;;;;;;;17.55;9.65;;;;;;;2.38;100.00;102586.59;4954293;28;20023;-89
2023/01/27 06:39:53;;;;;;;16.25;10.18;;;;;;;2.80;100.00;102651.16;4954940;28;20027;-89
2023/01/27 06:42:18;;;;;;;15.98;9.38;;;;;;;2.24;100.00;102563.66;4955076;28;20032;-89
2023/01/27 06:44:44;;;;;;;16.08;8.68;;;;;;;2.83;100.00;102653.69;4954392;29;20034;-89
2023/01/27 06:47:09;;;;;;;14.75;8.00;;;;;;;2.82;100.00;102650.28;4954728;29;20085;-90
2023/01/27 06:49:34;;;;;;;17.05;8.85;;;;;;;2.77;100.00;102644.38;4954842;28;20142;-88
2023/01/27 06:52:00;;;;;;;14.43;8.82;;;;;;;2.82;100.00;102663.06;4947525;29;20028;-90
2023/01/27 06:54:25;;;;;;;13.02;7.45;;;;;;;2.83;100.00;102657.09;4935660;29;20027;-89
2023/01/27 06:56:50;;;;;;;13.63;7.80;;;;;;;2.85;100.00;102662.19;4935478;29;20433;-88
2023/01/27 06:59:15;;;;;;;16.77;7.32;;;;;;;2.88;100.00;102664.75;4935115;29;20111;-90
2023/01/27 07:01:41;;;;;;;13.60;7.82;;;;;;;2.82;100.00;102652.84;4935270;29;20059;-89
2023/01/27 07:04:07;;;;;;;12.02;7.50;;;;;;;2.57;100.00;102610.38;4935837;29;20046;-90
2023/01/27 07:06:32;;;;;;;11.55;6.80;;;;;;;2.87;99.97;102663.06;4935506;29;20506;-89
2023/01/27 07:08:57;;;;;;;11.35;6.45;;;;;;;2.88;100.00;102655.41;4934761;29;20147;-90
2023/01/27 07:11:24;;;;;;;13.30;6.57;;;;;;;2.79;98.71;102642.66;4935636;29;20027;-90
2023/01/27 07:13:49;;;;;;;12.48;6.50;;;;;;;2.85;98.61;102655.41;4934447;29;20139;-89
2023/01/27 07:16:14;;;;;;;10.65;6.00;;;;;;;2.85;98.80;102649.44;4935423;29;20095;-89
2023/01/27 07:18:40;;;;;;;10.90;6.65;;;;;;;2.41;98.76;102583.19;4934818;29;20039;-91
2023/01/27 07:21:05;;;;;;;11.88;6.50;;;;;;;2.93;98.87;102664.72;4938039;29;20409;-87
2023/01/27 07:23:31;;;;;;;11.63;6.40;;;;;;;2.53;99.09;102598.47;4935294;29;20047;-87
2023/01/27 07:25:56;;;;;;;12.63;6.80;;;;;;;2.92;98.79;102669.00;4935088;29;20055;-85
2023/01/27 07:28:22;;;;;;;10.60;6.22;;;;;;;2.94;98.83;102674.94;4935158;29;20067;-86
2023/01/27 07:30:47;;;;;;;10.55;6.57;;;;;;;2.92;99.45;102674.09;4935061;29;20062;-83
2023/01/27 07:33:14;;;;;;;10.40;6.72;;;;;;;2.70;98.94;102642.66;4935150;29;20839;-86
2023/01/27 07:35:41;;;;;;;11.27;6.60;;;;;;;2.75;98.97;102650.28;4935415;29;20039;-85
2023/01/27 07:38:07;;;;;;;12.23;6.57;;;;;;;2.93;99.15;102683.44;4933893;29;20023;-84
2023/01/27 07:40:34;;;;;;;11.15;6.63;;;;;;;2.93;99.25;102687.69;4935289;29;20028;-84
2023/01/27 07:43:00;;;;;;;12.27;6.63;;;;;;;2.94;99.68;102686.84;4935271;29;20028;-85
2023/01/27 07:45:27;;;;;;;10.57;6.13;;;;;;;2.95;99.02;102693.66;4934950;29;20038;-85
2023/01/27 07:47:52;;;;;;;9.65;6.20;;;;;;;2.75;98.87;102650.28;4935235;29;20027;-86
2023/01/27 07:50:20;;;;;;;12.88;6.93;;;;;;;2.57;99.41;102624.00;4938996;29;20066;-83
2023/01/27 07:52:46;;;;;;;10.85;6.68;;;;;;;2.95;99.33;102683.44;4938813;29;20110;-85
2023/01/27 07:55:11;;;;;;;10.48;6.30;;;;;;;2.88;99.04;102675.81;4938462;29;20155;-84
2023/01/27 07:57:36;;;;;;;11.45;6.63;;;;;;;2.98;98.80;102693.66;4937555;29;20051;-84
2023/01/27 08:00:04;;;;;;;11.02;6.80;;;;;;;2.68;99.28;102638.44;4938392;29;20032;-84
2023/01/27 08:02:30;;;;;;;11.77;6.75;;;;;;;2.79;98.95;102657.13;4938697;29;20030;-83
2023/01/27 08:04:55;;;;;;;9.43;6.05;;;;;;;2.81;98.54;102656.25;4950624;29;20375;-82
2023/01/27 08:07:21;;;;;;;11.38;6.60;;;;;;;3.03;99.21;102697.03;4958137;29;20453;-84
2023/01/27 08:09:47;;;;;;;12.45;6.78;;;;;;;3.03;99.27;102697.88;4957772;28;20106;-83
2023/01/27 08:12:12;;;;;;;11.13;6.53;;;;;;;2.57;99.03;102621.44;4957569;28;20037;-81
2023/01/27 08:14:37;;;;;;;10.75;6.20;;;;;;;3.06;98.91;102697.06;4957471;29;20066;-84
2023/01/27 08:17:03;;;;;;;11.13;6.68;;;;;;;2.59;98.99;102632.47;4956393;29;20031;-86
2023/01/27 08:19:28;;;;;;;10.52;5.95;;;;;;;2.95;98.78;102694.53;4957421;29;20031;-89
2023/01/27 08:21:54;;;;;;;10.07;6.35;;;;;;;3.03;98.86;102703.00;4957678;29;20031;-82
2023/01/27 08:24:19;;;;;;;9.85;5.70;;;;;;;3.07;99.12;102708.97;4955994;29;20094;-82
2023/01/27 08:26:44;;;;;;;10.65;6.45;;;;;;;2.99;99.13;102693.66;4957175;29;20118;-84
2023/01/27 08:29:10;;;;;;;10.73;6.80;;;;;;;2.80;98.90;102663.91;4957099;28;20031;-84
2023/01/27 08:31:35;;;;;;;10.23;6.30;;;;;;;3.09;98.77;102713.22;4957846;29;20019;-83
2023/01/27 08:34:00;;;;;;;10.70;6.35;;;;;;;3.03;98.92;102703.00;4957109;28;20038;-84
2023/01/27 08:36:26;;;;;;;11.45;7.25;;;;;;;3.11;99.40;102710.66;4957098;29;20463;-84
2023/01/27 08:38:51;;;;;;;10.30;6.68;;;;;;;3.00;99.34;102689.41;4957383;28;20027;-84
2023/01/27 08:41:20;;;;;;;11.27;6.57;;;;;;;3.17;98.64;102715.75;4956832;28;20054;-82
2023/01/27 08:43:46;;;;;;;10.93;6.18;;;;;;;3.16;98.79;102724.28;4957110;28;20058;-86
2023/01/27 08:48:37;;;;;;;10.27;6.55;;;;;;;3.18;98.56;102722.56;5436734;23;20055;-86
2023/01/27 08:51:04;;;;;;;9.13;5.90;;;;;;;3.22;98.31;102733.59;4937693;29;20276;-86
2023/01/27 08:53:30;;;;;;;10.68;6.05;;;;;;;3.06;98.13;102703.00;4937936;29;20032;-87
2023/01/27 08:55:57;;;;;;;10.85;6.15;;;;;;;2.97;97.86;102708.13;4937581;29;20491;-88
2023/01/27 08:58:23;;;;;;;10.32;5.95;;;;;;;2.99;98.15;102714.06;4937483;29;20078;-87
2023/01/27 09:00:48;;;;;;;9.57;5.57;;;;;;;2.17;97.75;102584.06;4935269;29;20114;-87
2023/01/27 09:03:15;;;;;;;10.60;6.40;;;;;;;2.27;97.93;102612.09;4937363;29;20110;-85
2023/01/27 09:05:40;;;;;;;9.95;5.75;;;;;;;2.68;98.60;102675.00;4935909;29;20542;-86
2023/01/27 09:08:07;;;;;;;9.38;5.75;;;;;;;2.22;97.46;102601.03;4937309;29;20039;-84
2023/01/27 09:10:36;;;;;;;9.43;5.72;;;;;;;3.01;97.59;102722.56;4937395;29;20054;-86
2023/01/27 09:13:02;;;;;;;10.13;5.68;;;;;;;2.24;96.89;102603.59;4937323;29;20143;-85
2023/01/27 09:15:27;;;;;;;8.50;5.80;;;;;;;2.73;96.28;102680.91;4940013;29;20106;-86
2023/01/27 09:17:52;;;;;;;9.95;5.68;;;;;;;3.15;96.36;102758.31;4937033;29;20032;-86
2023/01/27 09:20:18;;;;;;;8.82;5.55;;;;;;;3.17;96.53;102751.50;4938089;29;20027;-88
2023/01/27 09:22:43;;;;;;;8.57;5.57;;;;;;;2.51;96.99;102641.84;4937525;29;20023;-85
2023/01/27 09:25:18;;;;;;;11.15;4.88;;;;;;;3.27;96.21;102758.28;4939332;29;20055;-88
2023/01/27 09:27:43;;;;;;;7.45;4.30;;;;;;;2.84;95.33;102683.47;4938242;29;20032;-90
2023/01/27 09:30:10;;;;;;;8.50;5.13;;;;;;;3.15;95.51;102738.75;4936999;29;20034;-83
2023/01/27 09:32:36;;;;;;;7.75;4.78;;;;;;;3.12;94.97;102718.28;4935639;29;20710;-89
2023/01/27 09:35:02;;;;;;;8.90;5.32;;;;;;;3.41;95.16;102759.09;4936917;29;20035;-84
2023/01/27 09:37:27;;;;;;;7.90;5.15;;;;;;;3.48;94.16;102767.59;4936717;29;20034;-84
2023/01/27 09:39:58;;;;;;;8.52;4.93;;;;;;;3.17;93.86;102720.84;4937249;29;20043;-84
2023/01/27 09:42:46;;;;;;;8.15;4.65;;;;;;;3.52;93.45;102781.19;4936867;29;20548;-84
2023/01/27 09:45:17;;;;;;;8.52;4.80;;;;;;;3.50;93.03;102786.31;4936573;29;20032;-87
2023/01/27 09:47:57;;;;;;;7.35;4.88;;;;;;;3.49;92.30;102794.00;4949896;29;20391;-88
2023/01/27 09:50:47;;;;;;;8.00;4.72;;;;;;;3.45;92.71;102780.38;4955623;28;20035;-87
2023/01/27 09:53:15;;;;;;;7.65;4.82;;;;;;;3.40;93.08;102788.03;4955780;29;20031;-87
2023/01/27 09:56:02;;;;;;;7.55;4.95;;;;;;;3.13;93.54;102750.63;4955504;29;20034;-89
2023/01/27 09:58:44;;;;;;;8.30;4.88;;;;;;;3.35;92.67;102791.47;4955752;28;20043;-88
2023/01/27 10:01:18;;;;;;;7.32;4.97;;;;;;;3.22;93.20;102799.97;4955365;28;20031;-89
2023/01/27 10:04:13;;;;;;;7.75;4.60;;;;;;;3.22;93.27;102795.72;4955420;29;20039;-86
2023/01/27 10:06:57;;;;;;;8.82;4.47;;;;;;;3.20;93.33;102794.03;4955413;29;20027;-89
2023/01/27 10:09:41;;;;;;;8.10;4.57;;;;;;;3.25;93.35;102788.06;4954308;29;20041;-84
2023/01/27 10:12:28;;;;;;;8.43;4.53;;;;;;;3.33;94.46;102794.00;4955444;28;20035;-83
2023/01/27 10:15:24;;;;;;;7.30;4.65;;;;;;;3.37;95.05;102787.22;4955287;28;20031;-83
2023/01/27 10:18:11;;;;;;;9.30;5.07;;;;;;;3.42;93.14;102788.03;4955054;29;20027;-83
2023/01/27 10:20:59;;;;;;;7.63;4.65;;;;;;;3.40;93.53;102774.41;4955331;29;20428;-84
2023/01/27 10:23:28;;;;;;;8.10;5.35;;;;;;;3.54;93.89;102782.91;4954123;29;20130;-84
2023/01/27 10:25:59;;;;;;;7.90;5.20;;;;;;;3.65;94.04;102776.06;4955152;28;20027;-83
2023/01/27 10:28:28;;;;;;;8.20;4.53;;;;;;;3.70;92.84;102776.91;4955010;29;20031;-84
2023/01/27 10:31:01;;;;;;;9.40;5.07;;;;;;;3.69;93.57;102785.41;4954992;28;20031;-82
2023/01/27 10:33:54;;;;;;;9.05;4.70;;;;;;;3.61;93.22;102764.16;4953763;29;20063;-83
2023/01/27 10:36:27;;;;;;;8.32;5.03;;;;;;;3.71;92.50;102780.28;4955074;28;20450;-85
2023/01/27 10:38:52;;;;;;;9.10;5.72;;;;;;;3.69;91.62;102782.84;4954998;28;20034;-86
2023/01/27 10:41:55;;;;;;;8.25;5.07;;;;;;;3.76;93.37;102782.84;4954864;29;20027;-84
2023/01/27 10:44:39;;;;;;;7.55;4.63;;;;;;;3.71;91.28;102775.19;4895869;29;20094;-84
2023/01/27 10:47:18;;;;;;;11.82;5.40;;;;;;;3.55;93.15;102751.41;4895432;29;20032;-85
2023/01/27 10:49:52;;;;;;;8.57;5.32;;;;;;;3.79;93.19;102775.16;4895690;29;20159;-85
2023/01/27 10:52:22;;;;;;;9.02;4.82;;;;;;;3.66;91.45;102752.22;4895805;29;20032;-85
2023/01/27 10:54:58;;;;;;;8.32;5.05;;;;;;;3.61;91.41;102745.41;4895616;29;20092;-86
2023/01/27 10:57:34;;;;;;;9.43;4.82;;;;;;;3.57;91.67;102738.63;4895751;29;20128;-84
2023/01/27 11:00:05;;;;;;;8.45;4.53;;;;;;;3.76;92.07;102772.63;4895548;29;20029;-84
2023/01/27 11:02:44;;;;;;;7.60;4.80;;;;;;;3.53;92.32;102731.81;4879715;29;20908;-86
2023/01/27 11:05:22;;;;;;;7.97;4.72;;;;;;;3.75;92.37;102771.78;4894477;29;20058;-81
2023/01/27 11:07:55;;;;;;;10.43;4.97;;;;;;;3.65;92.81;102762.44;4895972;29;20075;-84
2023/01/27 11:10:22;;;;;;;8.52;5.65;;;;;;;3.72;93.19;102780.28;4895498;29;20065;-85
2023/01/27 11:12:51;;;;;;;9.65;5.10;;;;;;;3.67;93.77;102776.91;4895469;29;20140;-84
2023/01/27 11:15:32;;;;;;;10.25;5.55;;;;;;;3.68;93.83;102773.50;4879592;29;20037;-85
2023/01/27 11:18:09;;;;;;;8.70;5.38;;;;;;;3.55;92.71;102755.66;4895362;29;20064;-86
2023/01/27 11:20:47;;;;;;;8.77;5.57;;;;;;;3.62;93.26;102768.41;4912334;29;20039;-87
2023/01/27 11:23:22;;;;;;;8.38;5.15;;;;;;;3.64;93.60;102766.72;4955432;28;20027;-84
2023/01/27 11:26:01;;;;;;;8.18;4.72;;;;;;;3.50;92.97;102732.69;4958335;28;20027;-84
2023/01/27 11:28:54;;;;;;;9.45;5.85;;;;;;;3.67;94.05;102766.69;4958166;28;20035;-84
2023/01/27 11:31:38;;;;;;;9.60;5.30;;;;;;;3.65;93.78;102768.41;4958204;29;20468;-85
2023/01/27 11:34:03;;;;;;;10.55;5.97;;;;;;;3.66;93.27;102764.16;4958060;29;20400;-85
2023/01/27 11:36:29;;;;;;;9.65;5.82;;;;;;;3.49;93.07;102728.44;4958002;28;20031;-87
2023/01/27 11:38:57;;;;;;;9.50;5.68;;;;;;;3.68;93.50;102760.72;4958081;28;20043;-86
2023/01/27 11:41:23;;;;;;;9.35;5.97;;;;;;;3.68;93.90;102768.38;4958371;28;20027;-85
2023/01/27 11:43:49;;;;;;;9.55;5.47;;;;;;;3.40;93.08;102721.63;4958036;28;20035;-87
2023/01/27 11:46:22;;;;;;;10.63;6.00;;;;;;;3.70;93.70;102764.13;4958089;28;20031;-84
2023/01/27 11:48:52;;;;;;;9.88;6.22;;;;;;;3.70;93.69;102751.34;4957534;28;20048;-85
2023/01/27 11:51:20;;;;;;;10.15;5.68;;;;;;;3.83;94.47;102758.94;4957590;28;20109;-85
2023/01/27 11:53:56;;;;;;;9.50;5.55;;;;;;;3.48;92.13;102706.31;4958250;28;20110;-85
2023/01/27 11:56:23;;;;;;;10.77;5.65;;;;;;;3.70;93.17;102750.50;4957887;28;20030;-85
2023/01/27 11:58:58;;;;;;;10.63;6.03;;;;;;;3.39;93.17;102689.31;4957965;28;20042;-85
2023/01/27 12:01:38;;;;;;;8.88;5.65;;;;;;;3.62;92.89;102724.13;4957720;28;20531;-85
2023/01/27 12:04:13;;;;;;;9.40;5.13;;;;;;;3.56;92.63;102725.00;4955737;29;20039;-85
2023/01/27 12:06:52;;;;;;;10.02;5.78;;;;;;;3.47;92.71;102702.06;4957811;28;20037;-85
2023/01/27 12:09:37;;;;;;;10.93;6.22;;;;;;;3.73;93.25;102748.75;4956359;29;20019;-86
2023/01/27 12:12:14;;;;;;;9.23;5.80;;;;;;;3.74;93.15;102753.06;4957607;28;20019;-86